CSUN New Campus Station -PST Time - Most Recent Data on bottom of page




           Date/Time      Avg      Avg      Max     Wind      Avg      Max      Min      Avg      Avg    Total      Avg     Batt
                         Wind     Wind     Wind      Dir     Temp     Temp     Temp       RH      Bar     Rain    Solar     Volt
                      Spd MPH      Dir  Spd MPH   at Max    Deg_F    Deg_F    Deg_F        % Press_mb   Inches     W/m2      Min
--------------------------------------------------------------------------------------------------------------------------------
    09/17/2017 00:00      0.4        0      1.6       25     63.5     63.7     63.1       73     1011     0.00        0     13.2
    09/17/2017 00:15      0.9       55      2.3       77     63.3     63.5     63.0       73     1011     0.00        0     13.2
    09/17/2017 00:30      0.9      163      2.7      137     62.9     63.3     62.6       75     1011     0.00        0     13.2
    09/17/2017 00:45      0.5      198      1.4      212     62.5     62.9     62.3       75     1011     0.00        0     13.3
    09/17/2017 01:00      0.2      252      1.1      289     62.2     62.4     62.0       76     1011     0.00        0     13.3
    09/17/2017 01:15      0.0      200      0.7      196     61.9     62.2     61.5       76     1011     0.00        0     13.3
    09/17/2017 01:30      0.3      200      1.1      194     61.5     61.9     61.2       77     1011     0.00        0     13.3
    09/17/2017 01:45      0.2      312      0.8      323     61.5     61.9     61.1       78     1011     0.00        0     13.3
    09/17/2017 02:00      0.4      317      1.1      319     61.6     61.8     61.4       77     1011     0.00        0     13.3
    09/17/2017 02:15      0.2      314      0.8      316     61.6     61.8     61.3       77     1011     0.00        0     13.3
    09/17/2017 02:30      0.7      145      1.5      142     61.6     61.9     61.4       77     1011     0.00        0     13.3
    09/17/2017 02:45      1.1      144      2.2      146     61.7     61.9     61.5       77     1011     0.00        0     13.3
    09/17/2017 03:00      0.3      165      1.2      133     62.0     62.3     61.6       76     1012     0.00        0     13.3
    09/17/2017 03:15      0.4      159      1.2      155     62.3     62.6     62.0       76     1012     0.00        0     13.3
    09/17/2017 03:30      0.5      156      1.8      157     62.8     63.2     62.4       74     1012     0.00        0     13.2
    09/17/2017 03:45      0.9      148      1.5      145     63.2     63.5     62.9       74     1012     0.00        0     13.2
    09/17/2017 04:00      0.8      129      2.3       89     63.5     63.8     63.2       73     1012     0.00        0     13.2
    09/17/2017 04:15      0.9      185      1.7      174     63.5     63.7     63.3       74     1012     0.00        0     13.2
    09/17/2017 04:30      0.6      196      1.9      168     63.4     63.6     63.3       73     1012     0.00        0     13.2
    09/17/2017 04:45      0.2      254      0.9      236     63.6     63.8     63.3       73     1012     0.00        0     13.2
    09/17/2017 05:00      0.4      296      1.2      292     63.8     64.0     63.6       73     1012     0.00        0     13.2
    09/17/2017 05:15      1.1       34      3.1       95     64.0     64.3     63.8       72     1012     0.00        0     13.2
    09/17/2017 05:30      1.0       91      2.6      134     64.2     64.4     64.0       73     1012     0.00        0     13.2
    09/17/2017 05:45      1.4      124      2.8      139     64.1     64.4     63.9       73     1012     0.00        0     13.2
    09/17/2017 06:00      1.4      155      2.6      133     64.0     64.2     63.9       73     1013     0.00        4     13.2
    09/17/2017 06:15      0.8       83      3.2       78     64.2     64.4     63.9       73     1013     0.00        9     13.2
    09/17/2017 06:30      0.5      162      1.8       35     64.3     64.6     64.1       73     1013     0.00       16     13.2
    09/17/2017 06:45      1.1       98      3.3       90     64.5     64.7     64.2       72     1013     0.00       26     13.2
    09/17/2017 07:00      0.8      116      3.3      100     64.5     64.8     64.2       73     1013     0.00       33     13.2
    09/17/2017 07:15      1.2      117      2.8       98     64.6     64.8     64.4       73     1013     0.00       35     13.2
    09/17/2017 07:30      1.0      116      3.0       91     64.5     64.8     64.3       74     1013     0.00       55     13.2
    09/17/2017 07:45      1.5      145      3.0      136     64.7     65.1     64.3       73     1013     0.00       67     13.2
    09/17/2017 08:00      1.1      153      3.2      138     65.1     65.4     64.8       72     1013     0.00       91     13.2
    09/17/2017 08:15      2.0      153      4.5      147     65.5     66.0     65.1       71     1013     0.00      125     13.2
    09/17/2017 08:30      1.6      111      4.5      132     65.9     66.2     65.7       71     1014     0.00      114     13.2
    09/17/2017 08:45      2.8      148      5.6      173     66.2     66.5     65.9       70     1014     0.00      178     13.2
    09/17/2017 09:00      2.4      137      5.5      149     66.5     66.9     66.1       70     1014     0.00      248     13.1
    09/17/2017 09:15      1.7      137      4.9      124     67.1     67.8     66.6       67     1014     0.00      260     13.1
    09/17/2017 09:30      2.1      145      5.1      153     68.1     68.6     67.7       66     1014     0.00      291     13.1
    09/17/2017 09:45      2.4      187      5.6      165     68.2     69.0     67.5       64     1014     0.00      319     13.1
    09/17/2017 10:00      2.7      155      6.0      169     68.9     69.5     68.4       64     1014     0.00      364     13.1
    09/17/2017 10:15      2.0      178      6.5      165     69.5     70.6     68.3       60     1014     0.00      357     13.1
    09/17/2017 10:30      2.0      161      5.5      195     70.1     70.7     69.4       62     1014     0.00      239     13.1
    09/17/2017 10:45      2.9      159      7.4      180     69.8     70.5     69.4       60     1014     0.00      266     13.1
    09/17/2017 11:00      1.7      325      4.5      194     70.1     70.5     69.9       60     1014     0.00      308     13.1
    09/17/2017 11:15      2.0      198      4.5      183     70.7     71.1     70.0       59     1014     0.00      360     13.1
    09/17/2017 11:30      3.0      125      7.8      168     71.5     72.2     71.1       57     1014     0.00      393     13.1
    09/17/2017 11:45      2.7      134      5.8      157     72.0     73.1     71.5       55     1014     0.00      415     13.1
    09/17/2017 12:00      1.7      207      6.0      171     73.2     73.6     72.8       54     1013     0.00      437     13.0
    09/17/2017 12:15      2.4      101      6.7      117     73.4     74.2     72.8       53     1013     0.00      457     13.0
    09/17/2017 12:30      2.6       78      6.0       90     73.2     73.6     72.5       52     1013     0.00      410     13.0
    09/17/2017 12:45      2.4       79      6.2      184     73.6     74.1     73.3       52     1013     0.00      423     13.0
    09/17/2017 13:00      4.0      177      7.9      163     75.4     77.3     73.8       47     1013     0.00      816     13.0
    09/17/2017 13:15      3.4      136      7.8      167     76.9     77.6     76.3       46     1013     0.00      810     13.0
    09/17/2017 13:30      3.7      175     11.6      159     77.0     78.1     75.6       50     1012     0.00      698     13.0
    09/17/2017 13:45      4.9      132      9.9      160     76.8     77.3     75.9       47     1012     0.00      698     13.0
    09/17/2017 14:00      2.3       99      6.4       93     76.4     77.0     76.0       46     1012     0.00      668     13.0
    09/17/2017 14:15      3.7      102      7.5       82     76.8     77.5     76.0       47     1012     0.00      630     13.0
    09/17/2017 14:30      3.1      151      8.9      180     77.3     77.9     76.4       46     1012     0.00      590     13.0
    09/17/2017 14:45      3.4      118      8.8      204     77.1     77.5     76.6       47     1012     0.00      550     13.0
    09/17/2017 15:00      3.7      121      7.9      155     77.8     78.3     76.9       47     1011     0.00      510     13.0
    09/17/2017 15:15      3.7      127      9.6      162     77.5     78.7     76.9       45     1011     0.00      462     13.0
    09/17/2017 15:30      4.9      166      9.3      165     77.9     78.9     76.9       45     1011     0.00      417     13.0
    09/17/2017 15:45      3.0      128      8.1      165     77.6     78.1     77.2       46     1011     0.00      369     13.0
    09/17/2017 16:00      3.6      131      7.4      151     77.3     77.9     76.9       46     1011     0.00      312     13.0
    09/17/2017 16:15      2.9      139      6.2      153     77.6     78.2     77.0       45     1011     0.00      271     13.0
    09/17/2017 16:30      4.5      177      7.8      183     76.8     77.9     75.6       49     1011     0.00      186     13.0
    09/17/2017 16:45      4.5      191      6.9      190     75.5     75.9     75.1       49     1011     0.00       72     13.0
    09/17/2017 17:00      5.1      180      8.9      191     75.1     75.9     74.3       51     1011     0.00      103     13.0
    09/17/2017 17:15      4.7      174      7.4      171     74.7     75.0     74.1       52     1011     0.00       90     13.0
    09/17/2017 17:30      3.7      185      6.4      182     74.1     74.6     73.6       53     1011     0.00       53     13.0
    09/17/2017 17:45      3.0      251      6.0      265     73.5     74.0     72.8       55     1011     0.00       23     13.0
    09/17/2017 18:00      3.2      269      6.0      263     72.4     73.0     71.8       57     1011     0.00        7     13.1
    09/17/2017 18:15      3.5      279      7.6      240     71.1     71.9     70.4       59     1011     0.00        1     13.1
    09/17/2017 18:30      3.6      268      7.8      246     70.1     70.5     69.7       61     1011     0.00        0     13.1
    09/17/2017 18:45      3.3      268      8.7      261     69.2     69.7     68.7       62     1011     0.00        0     13.1
    09/17/2017 19:00      2.4      275      5.2      252     68.4     68.8     68.0       63     1012     0.00        0     13.1
    09/17/2017 19:15      2.9      267      6.4      253     67.9     68.3     67.6       64     1012     0.00        0     13.1
    09/17/2017 19:30      2.8      258      6.7      288     67.5     67.8     67.2       65     1012     0.00        0     13.2
    09/17/2017 19:45      2.7      267      6.0      248     67.1     67.4     66.8       67     1012     0.00        0     13.2
    09/17/2017 20:00      1.7      237      5.5      257     66.6     67.0     66.3       67     1012     0.00        0     13.2
    09/17/2017 20:15      1.6      246      4.9      183     66.4     66.7     65.8       68     1012     0.00        0     13.2
    09/17/2017 20:30      1.1      233      4.2      245     65.8     66.0     65.5       69     1013     0.00        0     13.2
    09/17/2017 20:45      0.5      213      2.2      194     65.4     65.7     65.2       70     1013     0.00        0     13.2
    09/17/2017 21:00      0.3      175      1.9      130     65.0     65.3     64.7       71     1013     0.00        0     13.2
    09/17/2017 21:15      1.3      179      2.7      181     64.7     65.0     64.3       72     1013     0.00        0     13.2
    09/17/2017 21:30      1.4      212      3.1      210     64.3     64.7     64.1       72     1013     0.00        0     13.2
    09/17/2017 21:45      0.9      197      2.2      210     64.0     64.4     63.7       73     1013     0.00        0     13.2
    09/17/2017 22:00      0.7      205      1.9      179     63.6     64.0     63.2       74     1013     0.00        0     13.2
    09/17/2017 22:15      0.4      209      1.8      211     63.0     63.5     62.6       75     1013     0.00        0     13.2
    09/17/2017 22:30      0.3      256      1.7      222     62.7     62.9     62.5       76     1013     0.00        0     13.2
    09/17/2017 22:45      0.3      301      1.1      288     62.6     62.9     62.4       77     1013     0.00        0     13.2
    09/17/2017 23:00      0.2      293      0.9      298     62.4     62.7     62.2       77     1013     0.00        0     13.2
    09/17/2017 23:15      0.0      297      0.9      300     62.1     62.5     61.8       77     1013     0.00        0     13.3
    09/17/2017 23:30      0.0        0      0.0      288     62.0     62.2     61.8       78     1013     0.00        0     13.3
    09/17/2017 23:45      0.0        0      0.0      288     61.8     62.1     61.4       78     1013     0.00        0     13.3
    09/18/2017 00:00      0.0        0      0.0      285     61.3     61.7     61.1       79     1013     0.00        0     13.3
    09/18/2017 00:15      0.0        0      0.0      242     61.1     61.4     60.7       79     1013     0.00        0     13.3
    09/18/2017 00:30      0.0      184      1.0      181     60.8     61.1     60.5       81     1013     0.00        0     13.3
    09/18/2017 00:45      0.1      240      0.9      280     60.6     60.8     60.4       81     1013     0.00        0     13.3
    09/18/2017 01:00      0.0      284      1.1      283     60.6     60.8     60.3       81     1013     0.00        0     13.3
    09/18/2017 01:15      0.0        0      0.0      292     60.4     60.6     60.2       82     1012     0.00        0     13.3
    09/18/2017 01:30      0.0      286      0.6      285     60.3     60.5     60.0       82     1012     0.00        0     13.3
    09/18/2017 01:45      0.3      295      1.2      295     60.2     60.4     59.9       82     1012     0.00        0     13.3
    09/18/2017 02:00      0.0        0      0.0      295     59.9     60.2     59.6       83     1012     0.00        0     13.3
    09/18/2017 02:15      0.0      302      0.4      302     59.9     60.1     59.7       83     1012     0.00        0     13.3
    09/18/2017 02:30      0.0        0      0.0      303     59.6     60.0     59.3       83     1012     0.00        0     13.3
    09/18/2017 02:45      0.1      263      1.0      287     59.5     59.7     59.2       83     1012     0.00        0     13.3
    09/18/2017 03:00      0.3      309      1.0      308     59.5     59.7     59.3       83     1012     0.00        0     13.3
    09/18/2017 03:15      0.4      304      1.3      297     59.4     59.7     59.2       83     1012     0.00        0     13.3
    09/18/2017 03:30      0.0        0      0.0      307     59.1     59.4     58.9       83     1012     0.00        0     13.3
    09/18/2017 03:45      0.0        0      0.0      308     58.9     59.1     58.7       84     1012     0.00        0     13.3
    09/18/2017 04:00      0.0      313      0.5      314     58.9     59.1     58.7       84     1012     0.00        0     13.3
    09/18/2017 04:15      0.0        0      0.0      311     58.6     58.9     58.4       84     1012     0.00        0     13.3
    09/18/2017 04:30      0.0        0      0.0      309     58.4     58.7     58.1       84     1012     0.00        0     13.3
    09/18/2017 04:45      0.0        0      0.0      305     58.3     58.5     58.0       84     1012     0.00        0     13.3
    09/18/2017 05:00      0.0        0      0.0      310     58.1     58.5     57.7       84     1012     0.00        0     13.3
    09/18/2017 05:15      0.4       89      1.2       92     57.8     58.1     57.6       85     1012     0.00        0     13.3
    09/18/2017 05:30      0.2       70      0.9       65     58.2     58.3     57.8       85     1012     0.00        0     13.3
    09/18/2017 05:45      0.0       56      1.1       57     58.1     58.5     57.8       86     1012     0.00        3     13.3
    09/18/2017 06:00      0.4      336      1.2      337     58.4     58.7     58.1       85     1012     0.00       11     13.3
    09/18/2017 06:15      0.6      336      1.5      345     58.8     59.2     58.4       84     1012     0.00       22     13.3
    09/18/2017 06:30      0.7       48      2.9       38     59.4     60.3     58.8       84     1012     0.00       55     13.3
    09/18/2017 06:45      1.1       72      2.8       46     61.7     63.0     60.3       75     1013     0.00      126     13.3
    09/18/2017 07:00      1.5       66      2.6       85     63.3     63.9     62.9       72     1013     0.00      169     13.3
    09/18/2017 07:15      1.3      128      3.7      174     64.7     65.2     63.8       70     1013     0.00      215     13.2
    09/18/2017 07:30      1.4      146      3.2      155     65.7     66.6     64.6       67     1013     0.00      264     13.2
    09/18/2017 07:45      1.4      125      3.6      136     66.5     67.0     66.2       67     1013     0.00      310     13.2
    09/18/2017 08:00      2.8      163      5.2      153     67.4     67.9     66.6       64     1013     0.00      355     13.1
    09/18/2017 08:15      1.8      141      4.4      193     68.2     68.9     67.6       64     1013     0.00      400     13.1
    09/18/2017 08:30      1.7      187      4.6      206     68.5     69.8     67.5       60     1013     0.00      451     13.1
    09/18/2017 08:45      2.1      100      5.0       99     69.6     70.3     68.9       60     1013     0.00      494     13.1
    09/18/2017 09:00      2.6      185      6.0      174     69.9     70.5     69.3       60     1013     0.00      538     13.1
    09/18/2017 09:15      2.1      133      4.8      171     70.7     71.7     70.2       58     1013     0.00      578     13.1
    09/18/2017 09:30      2.4      168      6.6      180     72.6     73.2     71.6       56     1013     0.00      613     13.0
    09/18/2017 09:45      2.0      194      7.1      162     72.8     73.8     71.7       55     1013     0.00      647     13.0
    09/18/2017 10:00      2.5      160      7.6      153     73.6     74.0     73.1       53     1013     0.00      681     13.0
    09/18/2017 10:15      3.6      125      7.0       92     74.1     74.7     73.5       53     1013     0.00      710     13.0
    09/18/2017 10:30      3.7      149      7.3      150     74.8     75.5     74.2       51     1013     0.00      731     13.0
    09/18/2017 10:45      2.6      109      6.2       98     75.7     76.0     75.0       51     1013     0.00      757     13.0
    09/18/2017 11:00      3.3      160      7.7      144     76.3     77.5     75.3       49     1013     0.00      774     13.0
    09/18/2017 11:15      4.6      129      9.7       58     76.7     78.0     75.9       52     1013     0.00      789     13.0
    09/18/2017 11:30      4.0      152      8.8       83     77.5     78.2     76.9       49     1012     0.00      796     13.0
    09/18/2017 11:45      4.5       93      9.5       76     77.1     77.5     76.5       49     1012     0.00      804     13.0
    09/18/2017 12:00      4.2      133     10.2      148     78.0     79.1     76.8       47     1012     0.00      805     13.0
    09/18/2017 12:15      4.2      138     11.5      189     79.0     79.5     78.0       47     1012     0.00      805     13.0
    09/18/2017 12:30      4.6      105     11.2      145     78.3     79.2     77.5       46     1012     0.00      796     13.0
    09/18/2017 12:45      4.1      128     11.2       93     78.3     79.3     77.7       47     1012     0.00      740     13.0
    09/18/2017 13:00      4.4      135     11.0      139     79.8     80.8     79.0       44     1012     0.00      737     13.0
    09/18/2017 13:15      4.5      129      9.3      148     79.9     81.1     79.0       45     1012     0.00      710     12.9
    09/18/2017 13:30      4.6      113     10.7      155     79.1     79.7     78.8       45     1012     0.00      717     12.9
    09/18/2017 13:45      3.7      135      9.7      153     79.8     81.2     78.9       43     1011     0.00      705     12.9
    09/18/2017 14:00      4.6       94      9.9       92     79.4     80.4     79.0       45     1011     0.00      678     12.9
    09/18/2017 14:15      3.8      125      9.4      155     79.7     80.6     78.9       43     1011     0.00      638     12.9
    09/18/2017 14:30      3.7      131      8.5       89     81.0     81.8     80.0       42     1011     0.00      613     12.9
    09/18/2017 14:45      4.2      105     11.5       87     80.3     81.1     79.8       43     1011     0.00      574     12.9
    09/18/2017 15:00      4.3      101      8.9      104     80.3     81.1     79.7       44     1011     0.00      534     12.9
    09/18/2017 15:15      4.1      121      7.5      136     80.0     80.4     79.7       44     1011     0.00      494     12.9
    09/18/2017 15:30      3.8      125      7.7      128     80.1     80.9     79.4       44     1011     0.00      447     12.9
    09/18/2017 15:45      3.6      120      7.8      161     79.9     80.2     79.7       45     1011     0.00      396     12.9
    09/18/2017 16:00      3.8      116      8.1       90     79.7     80.1     79.3       45     1010     0.00      334     12.9
    09/18/2017 16:15      3.5      127      6.5       84     79.7     80.0     79.2       45     1011     0.00      291     12.9
    09/18/2017 16:30      3.2      141      8.4      175     79.8     80.1     79.5       45     1010     0.00      155     12.9
    09/18/2017 16:45      3.3      109      6.1      139     79.0     79.7     78.4       47     1010     0.00       58     13.0
    09/18/2017 17:00      3.1      131      8.1       69     78.5     78.8     78.1       47     1010     0.00       80     13.0
    09/18/2017 17:15      3.3      115      7.5       85     77.7     78.1     77.0       49     1010     0.00      102     13.0
    09/18/2017 17:30      3.4      155      7.1      143     76.7     77.4     76.0       51     1010     0.00       59     13.0
    09/18/2017 17:45      3.1      149      6.8      152     74.9     76.2     74.3       54     1010     0.00       23     13.0
    09/18/2017 18:00      3.2      141      6.4      153     73.3     74.4     72.5       57     1010     0.00        6     13.0
    09/18/2017 18:15      2.5      106      5.8       85     72.2     72.7     71.6       59     1011     0.00        1     13.1
    09/18/2017 18:30      2.8      100      6.0       81     71.1     71.8     70.3       62     1011     0.00        0     13.1
    09/18/2017 18:45      2.3      101      5.7       90     69.6     70.4     68.9       65     1011     0.00        0     13.1
    09/18/2017 19:00      3.0       83      6.4       77     68.4     69.0     67.6       67     1011     0.00        0     13.1
    09/18/2017 19:15      3.4       92      7.2       98     67.1     67.7     66.3       71     1011     0.00        0     13.1
    09/18/2017 19:30      3.7       76      7.0       73     65.8     66.4     65.3       74     1012     0.00        0     13.1
    09/18/2017 19:45      3.9       74      6.7       84     65.1     65.6     64.8       76     1012     0.00        0     13.2
    09/18/2017 20:00      4.4       74      7.4       91     64.6     65.0     64.2       77     1012     0.00        0     13.2
    09/18/2017 20:15      4.1       65      6.7       53     64.0     64.4     63.6       79     1012     0.00        0     13.2
    09/18/2017 20:30      3.7       74      6.1       52     63.7     63.9     63.6       79     1012     0.00        0     13.2
    09/18/2017 20:45      3.4       72      6.7       80     63.6     63.9     63.5       80     1012     0.00        0     13.2
    09/18/2017 21:00      3.2       79      6.0       90     63.4     63.6     63.3       81     1012     0.00        0     13.2
    09/18/2017 21:15      2.3       79      5.7       63     63.3     63.5     63.1       81     1012     0.00        0     13.2
    09/18/2017 21:30      2.4      102      5.1       73     63.3     63.6     63.1       81     1012     0.00        0     13.2
    09/18/2017 21:45      3.3       78      6.9       95     63.2     63.5     63.0       82     1012     0.00        0     13.2
    09/18/2017 22:00      2.7       92      6.1       91     63.2     63.5     63.0       82     1012     0.00        0     13.2
    09/18/2017 22:15      2.6       99      5.4       73     63.2     63.4     63.0       81     1012     0.00        0     13.2
    09/18/2017 22:30      2.4      109      4.7       80     63.1     63.4     62.8       82     1012     0.00        0     13.2
    09/18/2017 22:45      2.2      113      4.7       53     63.0     63.2     62.7       82     1012     0.00        0     13.2
    09/18/2017 23:00      2.6       43      5.3       52     62.8     63.0     62.5       83     1012     0.00        0     13.2
    09/18/2017 23:15      2.5       71      5.4       66     62.8     63.0     62.5       83     1012     0.00        0     13.2
    09/18/2017 23:30      3.4       83      8.3       63     62.9     63.1     62.6       82     1012     0.00        0     13.2
    09/18/2017 23:45      3.0       95      6.5       94     62.9     63.1     62.6       81     1012     0.00        0     13.2
    09/19/2017 00:00      2.0      108      5.3       52     63.0     63.2     62.8       81     1012     0.00        0     13.2
    09/19/2017 00:15      1.9      118      3.9      138     63.0     63.3     62.8       81     1012     0.00        0     13.2
    09/19/2017 00:30      2.0      124      4.8      145     63.0     63.2     62.8       81     1012     0.00        0     13.2
    09/19/2017 00:45      2.0      136      4.6      172     63.0     63.2     62.8       81     1012     0.00        0     13.2
    09/19/2017 01:00      2.0      120      5.4      132     63.0     63.3     62.8       81     1012     0.00        0     13.2
    09/19/2017 01:15      1.5      120      5.3      122     63.1     63.3     62.9       81     1012     0.00        0     13.2
    09/19/2017 01:30      2.7       84      4.7       87     63.0     63.2     62.8       81     1012     0.00        0     13.2
    09/19/2017 01:45      2.2       87      5.3       45     63.0     63.2     62.8       81     1012     0.00        0     13.2
    09/19/2017 02:00      1.6       99      3.9       97     63.1     63.3     62.9       81     1012     0.00        0     13.2
    09/19/2017 02:15      1.5      105      3.7      133     63.1     63.3     62.9       80     1012     0.00        0     13.2
    09/19/2017 02:30      1.7      146      3.7      161     63.2     63.5     63.0       80     1012     0.00        0     13.2
    09/19/2017 02:45      1.6      138      5.7      154     63.4     63.7     63.1       79     1012     0.00        0     13.2
    09/19/2017 03:00      3.1      156      6.4      144     63.5     63.8     63.3       79     1011     0.00        0     13.2
    09/19/2017 03:15      2.2      163      4.4      169     63.3     63.6     63.1       80     1011     0.00        0     13.2
    09/19/2017 03:30      2.3      152      3.9      153     63.3     63.5     63.0       79     1011     0.00        0     13.2
    09/19/2017 03:45      1.4      147      3.7      176     63.4     63.6     63.1       79     1011     0.00        0     13.2
    09/19/2017 04:00      1.3      153      2.9      165     63.5     63.6     63.3       78     1011     0.00        0     13.2
    09/19/2017 04:15      0.3      147      1.4      154     63.6     63.8     63.4       77     1011     0.00        0     13.2
    09/19/2017 04:30      1.0      174      2.6      130     63.7     63.9     63.5       77     1012     0.00        0     13.2
    09/19/2017 04:45      1.6      146      3.2      159     64.1     64.3     63.8       76     1012     0.00        0     13.2
    09/19/2017 05:00      1.5      140      3.6      168     64.3     64.5     64.0       74     1012     0.00        0     13.2
    09/19/2017 05:15      2.1      167      5.2      178     64.5     64.8     64.2       74     1012     0.00        0     13.2
    09/19/2017 05:30      1.7      178      3.9      197     64.2     64.4     64.0       75     1012     0.00        0     13.2
    09/19/2017 05:45      2.9      157      5.1      175     64.3     64.5     64.0       74     1012     0.00        1     13.2
    09/19/2017 06:00      3.1      160      4.9      157     64.3     64.5     64.1       74     1012     0.00        4     13.2
    09/19/2017 06:15      1.6      153      3.3      160     64.4     64.6     64.1       73     1012     0.00       10     13.2
    09/19/2017 06:30      1.2      148      2.8      168     64.6     65.0     64.3       72     1012     0.00       21     13.2
    09/19/2017 06:45      1.6      136      4.3      170     64.9     65.2     64.7       71     1012     0.00       31     13.2
    09/19/2017 07:00      2.7      136      5.4      161     65.2     65.4     65.0       70     1012     0.00       35     13.2
    09/19/2017 07:15      2.7      139      5.9      141     65.3     65.6     65.1       69     1012     0.00       42     13.2
    09/19/2017 07:30      3.9      149      7.1      149     65.5     65.9     65.3       69     1012     0.00       60     13.2
    09/19/2017 07:45      3.4      149      6.2      166     65.8     66.0     65.5       68     1013     0.00       74     13.2
    09/19/2017 08:00      2.3      115      5.2       92     66.1     66.3     65.8       67     1013     0.00       99     13.2
    09/19/2017 08:15      2.8      134      5.3       83     66.3     66.6     66.0       67     1013     0.00      108     13.2
    09/19/2017 08:30      3.5      159      6.7      177     66.7     66.9     66.3       67     1013     0.00      147     13.2
    09/19/2017 08:45      3.1      136      6.0      132     67.0     67.3     66.7       66     1013     0.00      142     13.2
    09/19/2017 09:00      3.3      136      7.5      142     67.2     67.6     66.8       65     1013     0.00      163     13.2
    09/19/2017 09:15      3.1      146      7.3      154     67.8     68.2     67.3       64     1013     0.00      195     13.1
    09/19/2017 09:30      2.7      125      5.7       75     68.2     68.4     67.9       63     1013     0.00      204     13.1
    09/19/2017 09:45      3.2      147      6.2      180     68.6     69.0     68.1       61     1013     0.00      233     13.1
    09/19/2017 10:00      2.8      141      6.0      127     69.1     69.6     68.8       60     1013     0.00      221     13.1
    09/19/2017 10:15      3.1      152      6.6      162     69.5     70.1     69.0       58     1013     0.00      211     13.1
    09/19/2017 10:30      2.2       97      5.8      102     69.4     69.6     69.2       57     1013     0.00      175     13.1
    09/19/2017 10:45      3.1      137      6.9      159     69.9     70.2     69.3       58     1013     0.00      205     13.1
    09/19/2017 11:00      2.9      120      6.9      118     70.3     70.7     70.0       56     1012     0.00      289     13.1
    09/19/2017 11:15      2.7      113      7.0      109     70.6     71.5     70.2       55     1012     0.00      321     13.1
    09/19/2017 11:30      3.8      141      7.9      175     70.9     71.6     70.2       55     1012     0.00      312     13.1
    09/19/2017 11:45      2.2      108      5.7       81     71.5     71.9     70.7       53     1012     0.00      344     13.1
    09/19/2017 12:00      3.0      138      6.8      152     71.9     72.2     71.4       54     1012     0.00      294     13.1
    09/19/2017 12:15      3.1      129     10.2      177     72.0     72.7     71.4       53     1012     0.00      329     13.1
    09/19/2017 12:30      3.4      172      7.3      146     72.0     72.7     71.6       53     1012     0.00      443     13.1
    09/19/2017 12:45      2.2      104      6.0       85     72.6     72.9     72.3       51     1011     0.00      349     13.0
    09/19/2017 13:00      4.0      164      9.5      182     72.5     72.9     71.8       54     1011     0.00      429     13.0
    09/19/2017 13:15      2.7      166      9.0      154     73.4     74.2     72.6       51     1011     0.00      384     13.0
    09/19/2017 13:30      3.8      173      8.2      183     73.5     74.2     72.9       51     1011     0.00      391     13.0
    09/19/2017 13:45      2.2      150      6.3       94     73.7     74.3     73.1       49     1011     0.00      346     13.0
    09/19/2017 14:00      2.8      218      7.8      175     73.8     74.5     73.2       50     1011     0.00      438     13.0
    09/19/2017 14:15      3.0      171      7.8      176     75.6     76.4     74.3       47     1011     0.00      667     13.0
    09/19/2017 14:30      2.6      185      7.9      163     76.5     77.2     75.9       45     1010     0.00      630     13.0
    09/19/2017 14:45      3.7      154      8.8      174     76.3     77.3     75.4       45     1010     0.00      625     13.0
    09/19/2017 15:00      3.3      242      7.1      251     76.3     76.6     75.8       44     1010     0.00      513     13.0
    09/19/2017 15:15      3.2      180      7.8      142     76.5     77.2     75.9       45     1010     0.00      429     13.0
    09/19/2017 15:30      2.0      197      5.3      205     75.6     76.8     74.9       45     1010     0.00      259     13.0
    09/19/2017 15:45      4.2      146     10.7      164     76.3     77.3     75.3       46     1010     0.00      425     13.0
    09/19/2017 16:00      4.8      131     10.1      161     75.9     77.2     74.7       50     1010     0.00      268     13.0
    09/19/2017 16:15      4.0      127      7.5      159     73.9     75.0     72.9       55     1010     0.00      119     13.0
    09/19/2017 16:30      3.1      130      7.6      146     72.8     73.2     72.3       55     1010     0.00       70     13.0
    09/19/2017 16:45      3.3      122      9.0      166     72.4     72.8     71.8       56     1010     0.00       75     13.0
    09/19/2017 17:00      2.9      141      7.0      136     72.0     72.3     71.7       56     1010     0.00       49     13.1
    09/19/2017 17:15      3.5      142      6.8      167     71.7     72.1     71.3       56     1010     0.00       32     13.1
    09/19/2017 17:30      3.4      147      6.0      145     71.3     71.6     71.1       57     1010     0.00       20     13.1
    09/19/2017 17:45      4.9      161      8.0      176     71.1     71.5     70.7       57     1010     0.00       12     13.1
    09/19/2017 18:00      4.1      163      7.1      177     70.5     71.1     70.2       58     1010     0.00        4     13.1
    09/19/2017 18:15      4.1      184      8.2      166     69.9     70.3     69.5       59     1010     0.00        0     13.1
    09/19/2017 18:30      2.9      207      5.8      170     69.6     69.8     69.3       60     1010     0.00        0     13.1
    09/19/2017 18:45      2.7      247      7.5      243     69.3     69.6     69.0       61     1010     0.00        0     13.1
    09/19/2017 19:00      2.2      258      5.0      252     68.7     69.2     68.3       63     1010     0.00        0     13.1
    09/19/2017 19:15      2.4      260      6.7      263     68.0     68.5     67.6       65     1010     0.00        0     13.2
    09/19/2017 19:30      3.1      267      7.1      259     67.5     67.9     67.1       66     1011     0.00        0     13.2
    09/19/2017 19:45      2.0      271      4.6      247     67.1     67.4     66.7       67     1011     0.00        0     13.2
    09/19/2017 20:00      1.1      274      2.6      263     66.5     67.0     66.2       69     1011     0.00        0     13.2
    09/19/2017 20:15      0.9      267      3.0      305     66.0     66.3     65.7       70     1011     0.00        0     13.2
    09/19/2017 20:30      0.7      237      2.8      248     65.5     65.9     65.0       71     1011     0.00        0     13.2
    09/19/2017 20:45      1.9      257      4.7      247     65.2     65.5     64.8       71     1011     0.00        0     13.2
    09/19/2017 21:00      0.9      297      1.9      305     65.0     65.5     64.7       72     1011     0.00        0     13.2
    09/19/2017 21:15      0.8      304      1.5      312     64.7     65.0     64.3       72     1011     0.00        0     13.2
    09/19/2017 21:30      0.9      287      2.1      300     64.2     64.5     63.8       73     1011     0.00        0     13.2
    09/19/2017 21:45      0.0        0      0.0      276     63.7     64.1     63.2       74     1011     0.00        0     13.2
    09/19/2017 22:00      0.3      289      1.4      291     63.0     63.4     62.7       76     1011     0.00        0     13.2
    09/19/2017 22:15      0.2      307      0.9      315     62.6     62.9     62.3       77     1011     0.00        0     13.2
    09/19/2017 22:30      0.8      305      1.8      280     62.7     63.0     62.4       77     1011     0.00        0     13.2
    09/19/2017 22:45      0.6      307      1.8      310     62.7     62.9     62.5       77     1011     0.00        0     13.2
    09/19/2017 23:00      0.4      307      1.1      317     62.6     62.9     62.3       77     1011     0.00        0     13.2
    09/19/2017 23:15      0.1      294      1.0      310     62.2     62.5     62.0       78     1011     0.00        0     13.3
    09/19/2017 23:30      0.4       82      2.5       84     61.8     62.1     61.5       80     1011     0.00        0     13.3
    09/19/2017 23:45      1.0       66      1.9      104     61.6     61.9     61.4       80     1011     0.00        0     13.3
    09/20/2017 00:00      0.1       50      1.3       54     61.4     61.7     60.9       80     1011     0.00        0     13.3
    09/20/2017 00:15      0.2      149      1.0      149     60.8     61.2     60.4       80     1011     0.00        0     13.3
    09/20/2017 00:30      0.6       78      2.1       79     60.7     61.1     60.3       81     1011     0.00        0     13.3
    09/20/2017 00:45      0.7      357      1.6      348     60.7     60.9     60.5       82     1011     0.00        0     13.3
    09/20/2017 01:00      0.0        0      0.0       18     60.3     60.6     60.0       82     1011     0.00        0     13.3
    09/20/2017 01:15      0.2       30      2.5       39     60.0     60.3     59.8       83     1011     0.00        0     13.3
    09/20/2017 01:30      0.6      332      1.5      319     60.0     60.2     59.8       83     1011     0.00        0     13.3
    09/20/2017 01:45      1.0        2      2.9      354     59.8     60.1     59.5       83     1011     0.00        0     13.3
    09/20/2017 02:00      0.8       70      2.6       44     59.9     60.0     59.5       82     1010     0.00        0     13.3
    09/20/2017 02:15      0.5       98      1.4       70     59.4     59.7     59.1       82     1010     0.00        0     13.3
    09/20/2017 02:30      0.2       52      1.7       42     59.1     59.4     58.8       83     1010     0.00        0     13.3
    09/20/2017 02:45      0.1      124      0.7      124     58.7     59.1     58.5       83     1010     0.00        0     13.3
    09/20/2017 03:00      0.0      120      0.7      123     58.5     58.8     58.1       84     1010     0.00        0     13.3
    09/20/2017 03:15      0.3       71      1.2       66     58.4     58.6     58.1       84     1010     0.00        0     13.3
    09/20/2017 03:30      0.0        0      0.0       62     58.1     58.3     57.8       85     1010     0.00        0     13.3
    09/20/2017 03:45      1.0      332      1.9      339     58.3     58.5     57.8       85     1010     0.00        0     13.3
    09/20/2017 04:00      0.4      306      0.9      302     58.2     58.5     57.8       85     1010     0.00        0     13.3
    09/20/2017 04:15      0.2      357      1.1        1     58.1     58.4     57.9       85     1010     0.00        0     13.3
    09/20/2017 04:30      0.2      347      1.0      345     58.2     58.4     57.8       85     1010     0.00        0     13.3
    09/20/2017 04:45      0.8      353      1.6       24     58.3     58.8     57.9       85     1010     0.00        0     13.3
    09/20/2017 05:00      0.6       23      1.8      344     59.0     59.5     58.5       85     1010     0.00        0     13.3
    09/20/2017 05:15      0.1      107      1.2       55     59.5     59.7     59.1       83     1010     0.00        0     13.3
    09/20/2017 05:30      0.0      166      1.0      169     59.1     59.5     58.8       83     1010     0.00        0     13.3
    09/20/2017 05:45      0.7      138      1.5      131     59.1     59.4     58.8       84     1010     0.00        2     13.3
    09/20/2017 06:00      0.9      147      1.8      158     59.4     59.5     59.1       84     1011     0.00        7     13.3
    09/20/2017 06:15      0.9      143      1.5      130     59.6     60.0     59.4       83     1011     0.00       28     13.3
    09/20/2017 06:30      0.0        0      0.0      144     60.0     60.4     59.7       82     1011     0.00       55     13.3
    09/20/2017 06:45      0.2      187      0.7      187     60.8     61.3     60.3       80     1011     0.00       79     13.3
    09/20/2017 07:00      0.7       65      2.4       83     61.8     62.3     61.1       77     1011     0.00       86     13.3
    09/20/2017 07:15      2.0       76      3.5       79     62.6     62.9     62.1       75     1011     0.00      110     13.2
    09/20/2017 07:30      1.6       70      2.8       62     62.9     63.2     62.6       74     1011     0.00       77     13.2
    09/20/2017 07:45      1.3       67      3.5      127     64.1     65.8     63.0       70     1012     0.00      248     13.2
    09/20/2017 08:00      2.7      144      5.8      159     65.5     66.1     65.0       71     1012     0.00      164     13.2
    09/20/2017 08:15      2.4      152      5.5      144     65.3     65.8     64.9       70     1012     0.00      121     13.2
    09/20/2017 08:30      2.2      170      5.2      184     65.7     66.3     65.1       68     1012     0.00      197     13.2
    09/20/2017 08:45      2.3      153      7.2      160     67.2     67.8     66.2       64     1012     0.00      250     13.2
    09/20/2017 09:00      2.1      100      6.1       89     68.2     68.7     67.5       62     1012     0.00      338     13.1
    09/20/2017 09:15      3.1      143      8.4      166     69.6     71.3     68.1       52     1012     0.00      596     13.1
    09/20/2017 09:30      2.4      136      6.2      164     70.3     71.4     69.3       56     1012     0.00      366     13.1
    09/20/2017 09:45      3.3      156      7.3      132     71.4     73.2     69.7       50     1012     0.00      608     13.1
    09/20/2017 10:00      3.8      123      7.9       96     72.4     73.1     71.9       50     1012     0.00      800     13.0
    09/20/2017 10:15      4.3      146     10.8      161     73.5     74.6     72.6       50     1012     0.00      460     13.0
    09/20/2017 10:30      4.2      138      8.3      178     72.1     72.8     71.3       52     1012     0.00      426     13.0
    09/20/2017 10:45      3.6      145      7.8      148     72.3     72.8     71.7       51     1012     0.00      320     13.0
    09/20/2017 11:00      4.7      170      9.0      152     72.6     73.3     71.8       49     1012     0.00      417     13.0
    09/20/2017 11:15      5.0      160     10.8      198     72.3     72.9     71.8       50     1012     0.00      435     13.1
    09/20/2017 11:30      4.8      175      9.2      150     74.4     75.8     72.8       44     1011     0.00      930     13.0
    09/20/2017 11:45      3.8      148      9.2      147     75.9     76.8     75.0       43     1011     0.00      894     13.0
    09/20/2017 12:00      5.1      154     10.2       91     75.7     76.5     74.9       42     1011     0.00      823     13.0
    09/20/2017 12:15      3.5      212      9.3      172     75.3     76.5     74.7       42     1011     0.00      821     13.0
    09/20/2017 12:30      3.9      151     10.5      132     76.3     77.4     75.2       40     1011     0.00      826     13.0
    09/20/2017 12:45      3.8      163     10.0      163     76.9     77.7     76.5       41     1011     0.00      798     13.0
    09/20/2017 13:00      3.4      183      7.4      170     77.7     78.4     77.2       37     1010     0.00      833     13.0
    09/20/2017 13:15      4.4      176     10.7      190     78.2     79.2     77.2       35     1010     0.00      801     13.0
    09/20/2017 13:30      4.5      147      9.3      163     78.8     79.4     78.2       41     1010     0.00      775     12.9
    09/20/2017 13:45      4.6      127      9.6      100     77.5     78.8     76.5       43     1010     0.00      483     12.9
    09/20/2017 14:00      4.2      117     10.4      159     77.2     78.4     76.3       43     1010     0.00      529     13.0
    09/20/2017 14:15      3.4      139      9.8      150     77.1     78.1     76.5       44     1010     0.00      447     13.0
    09/20/2017 14:30      6.1      151     12.3      173     78.1     79.1     77.0       43     1010     0.00      500     13.0
    09/20/2017 14:45      4.9      144     12.5      155     76.8     77.8     75.9       46     1010     0.00      207     13.0
    09/20/2017 15:00      4.4      145      9.0      157     75.7     76.2     75.1       47     1010     0.00      132     13.0
    09/20/2017 15:15      3.6      127      8.9       90     74.9     75.6     74.3       49     1010     0.00       92     13.0
    09/20/2017 15:30      4.6      141      9.1      149     74.2     74.5     73.8       51     1010     0.00       63     13.0
    09/20/2017 15:45      3.8      151      8.4      165     73.7     74.0     73.4       51     1009     0.00       44     13.0
    09/20/2017 16:00      4.8      162     10.0      161     73.4     73.9     73.0       52     1009     0.00       47     13.1
    09/20/2017 16:15      5.6      163      9.3      178     73.0     73.4     72.7       53     1009     0.00       52     13.1
    09/20/2017 16:30      4.3      170      8.0      151     72.9     73.4     72.4       55     1009     0.00       46     13.1
    09/20/2017 16:45      4.2      158      7.5      160     72.7     72.9     72.4       55     1009     0.00       35     13.1
    09/20/2017 17:00      4.8      171      9.0      186     72.2     72.7     71.7       56     1009     0.00       23     13.1
    09/20/2017 17:15      4.2      189      8.1      150     71.6     71.9     71.3       57     1009     0.00       15     13.1
    09/20/2017 17:30      2.7      205      6.6      166     71.5     71.7     71.2       57     1009     0.00        9     13.1
    09/20/2017 17:45      2.7      211      7.5      183     71.3     71.5     71.0       58     1009     0.00        5     13.1
    09/20/2017 18:00      2.5      235      6.2      252     71.2     71.4     70.8       55     1009     0.00        1     13.1
    09/20/2017 18:15      3.9      259      9.7      254     70.6     71.1     70.1       56     1009     0.00        0     13.1
    09/20/2017 18:30      4.0      273      8.1      245     69.9     70.3     69.5       58     1009     0.00        0     13.1
    09/20/2017 18:45      4.4      272     11.1      253     69.2     69.7     68.6       59     1009     0.00        0     13.1
    09/20/2017 19:00      2.9      276      7.4      264     68.8     69.0     68.5       59     1009     0.00        0     13.1
    09/20/2017 19:15      2.7      268      8.6      246     68.5     68.8     68.2       60     1009     0.00        0     13.1
    09/20/2017 19:30      3.3      262      8.2      244     68.1     68.5     67.7       61     1010     0.00        0     13.1
    09/20/2017 19:45      2.9      249      6.4      250     67.6     68.0     67.3       63     1010     0.00        0     13.2
    09/20/2017 20:00      2.9      258      7.1      263     67.2     67.4     66.8       64     1010     0.00        0     13.2
    09/20/2017 20:15      2.4      276      5.5      290     66.9     67.1     66.5       65     1010     0.00        0     13.2
    09/20/2017 20:30      2.3      282      5.6      240     66.7     66.9     66.5       66     1010     0.00        0     13.2
    09/20/2017 20:45      3.5      275      8.7      253     66.3     66.7     65.8       67     1010     0.00        0     13.2
    09/20/2017 21:00      3.2      278      7.8      256     65.8     66.0     65.4       68     1010     0.00        0     13.2
    09/20/2017 21:15      3.3      265      6.8      259     65.3     65.7     65.0       69     1010     0.00        0     13.2
    09/20/2017 21:30      3.1      260      7.0      248     64.9     65.2     64.7       70     1010     0.00        0     13.2
    09/20/2017 21:45      3.6      258      6.5      246     64.7     64.9     64.5       71     1010     0.00        0     13.2
    09/20/2017 22:00      2.1      257      5.4      248     64.6     64.8     64.5       71     1010     0.00        0     13.2
    09/20/2017 22:15      1.6      227      4.1      249     64.5     64.8     64.2       71     1010     0.00        0     13.2
    09/20/2017 22:30      1.2      209      3.5      268     64.1     64.4     63.8       73     1010     0.00        0     13.2
    09/20/2017 22:45      1.2      165      2.4      174     63.8     64.1     63.6       73     1010     0.00        0     13.2
    09/20/2017 23:00      0.6      154      2.0      156     64.0     64.4     63.8       72     1010     0.00        0     13.2
    09/20/2017 23:15      1.2      150      2.2      153     64.4     64.5     64.1       71     1010     0.00        0     13.2
    09/20/2017 23:30      1.7      133      3.1      127     64.5     64.7     64.3       71     1010     0.00        0     13.2
    09/20/2017 23:45      1.7      142      3.0      131     64.5     64.7     64.3       71     1010     0.00        0     13.2
    09/21/2017 00:00      1.4      150      2.6      152     64.6     64.8     64.4       71     1009     0.00        0     13.2
    09/21/2017 00:15      1.5      176      3.6      173     64.6     64.8     64.4       72     1009     0.00        0     13.2
    09/21/2017 00:30      1.2      204      2.8      220     64.3     64.7     64.0       73     1009     0.00        0     13.2
    09/21/2017 00:45      2.6      192      4.2      189     63.9     64.3     63.6       74     1010     0.00        0     13.2
    09/21/2017 01:00      2.4      235      5.7      251     63.7     63.9     63.5       74     1010     0.00        0     13.2
    09/21/2017 01:15      2.0      247      4.5      235     63.5     63.8     63.2       74     1010     0.00        0     13.2
    09/21/2017 01:30      1.5      243      4.1      243     63.2     63.5     63.0       75     1010     0.00        0     13.2
    09/21/2017 01:45      1.3      269      3.4      234     63.0     63.2     62.8       75     1009     0.00        0     13.2
    09/21/2017 02:00      1.2      284      2.8      260     63.0     63.2     62.7       74     1009     0.00        0     13.2
    09/21/2017 02:15      1.1      282      2.5      244     62.9     63.1     62.7       75     1009     0.00        0     13.2
    09/21/2017 02:30      0.9      288      2.0      286     62.9     63.0     62.6       75     1009     0.00        0     13.2
    09/21/2017 02:45      0.5      296      1.6      304     63.0     63.3     62.7       75     1009     0.00        0     13.2
    09/21/2017 03:00      0.7      217      4.0      192     63.1     63.5     63.0       76     1009     0.00        0     13.2
    09/21/2017 03:15      2.5      191      4.3      193     63.1     63.4     62.8       77     1009     0.00        0     13.2
    09/21/2017 03:30      2.2      186      3.4      162     62.8     63.0     62.6       78     1009     0.00        0     13.2
    09/21/2017 03:45      1.2      196      2.7      209     62.6     62.9     62.4       77     1009     0.00        0     13.2
    09/21/2017 04:00      0.6      220      2.3      185     62.7     62.9     62.4       76     1009     0.00        0     13.2
    09/21/2017 04:15      1.6      196      3.8      194     62.9     63.0     62.6       76     1009     0.00        0     13.2
    09/21/2017 04:30      1.4      199      3.9      193     63.0     63.3     62.8       76     1009     0.00        0     13.2
    09/21/2017 04:45      0.7      205      3.3      176     63.1     63.3     62.9       76     1009     0.00        0     13.2
    09/21/2017 05:00      2.0      187      4.6      204     63.1     63.3     62.9       77     1009     0.00        0     13.2
    09/21/2017 05:15      2.0      207      3.5      198     63.2     63.4     62.9       77     1009     0.00        0     13.2
    09/21/2017 05:30      2.2      210      3.6      193     63.2     63.3     63.0       77     1009     0.00        0     13.2
    09/21/2017 05:45      2.4      186      4.9      196     63.1     63.3     62.9       78     1009     0.00        0     13.2
    09/21/2017 06:00      2.8      190      5.9      192     63.3     63.5     63.1       79     1009     0.00        0     13.2
    09/21/2017 06:15      3.7      194      6.3      203     63.2     63.5     62.9       78     1009     0.00        6     13.2
    09/21/2017 06:30      2.3      219      6.1      247     63.1     63.3     62.9       77     1010     0.00       23     13.2
    09/21/2017 06:45      2.7      217      8.0      184     63.3     63.5     63.1       76     1010     0.00       24     13.2
    09/21/2017 07:00      2.3      226      6.0      281     63.5     63.7     63.2       76     1010     0.00       48     13.2
    09/21/2017 07:15      2.7      216      6.1      210     63.6     63.8     63.3       76     1010     0.00       62     13.2
    09/21/2017 07:30      2.3      218      5.9      201     63.9     64.1     63.5       75     1010     0.00       80     13.2
    09/21/2017 07:45      2.5      226      6.2      264     64.0     64.3     63.7       75     1010     0.00      109     13.2
    09/21/2017 08:00      3.5      206      7.1      192     64.3     64.7     64.0       74     1010     0.00      144     13.2